createdAt,value
2022-09-14T00:01:45.799Z,93.29
2022-09-14T00:04:18.701Z,93.51
2022-09-14T00:06:50.319Z,93.10
2022-09-14T00:09:24.853Z,92.71
2022-09-14T00:11:56.716Z,91.88
2022-09-14T00:14:26.699Z,91.95
2022-09-14T00:16:56.578Z,91.77
2022-09-14T00:19:28.970Z,91.23
2022-09-14T00:22:01.536Z,90.94
2022-09-14T00:24:33.000Z,90.78
2022-09-14T00:27:04.658Z,90.59
2022-09-14T00:29:35.056Z,90.45
2022-09-14T00:32:05.721Z,90.13
2022-09-14T00:34:36.038Z,89.98
2022-09-14T00:37:06.108Z,89.77
2022-09-14T00:39:35.999Z,89.28
2022-09-14T00:42:08.618Z,89.53
2022-09-14T00:45:13.799Z,89.35
2022-09-14T00:47:44.260Z,89.46
2022-09-14T00:52:10.948Z,89.73
2022-09-14T00:54:44.036Z,89.47
2022-09-14T00:57:14.563Z,88.97
2022-09-14T00:59:46.459Z,89.02
2022-09-14T01:02:17.359Z,89.34
2022-09-14T01:04:47.998Z,89.41
2022-09-14T01:07:58.242Z,88.84
2022-09-14T01:10:46.255Z,89.14
2022-09-14T01:13:34.614Z,89.03
2022-09-14T01:16:21.800Z,89.11
2022-09-14T01:18:58.226Z,89.27
2022-09-14T01:21:33.677Z,89.93
2022-09-14T01:24:17.739Z,89.97
2022-09-14T01:27:21.718Z,89.90
2022-09-14T01:30:04.178Z,89.79
2022-09-14T01:32:41.082Z,89.63
2022-09-14T01:35:19.776Z,89.01
2022-09-14T01:37:53.960Z,89.54
2022-09-14T01:40:31.895Z,89.54
2022-09-14T01:43:11.218Z,90.02
2022-09-14T01:45:45.878Z,89.30
2022-09-14T01:48:21.699Z,89.58
2022-09-14T01:50:55.667Z,89.54
2022-09-14T01:53:31.451Z,90.02
2022-09-14T01:56:07.275Z,89.53
2022-09-14T01:58:43.934Z,89.81
2022-09-14T02:01:21.295Z,89.78
2022-09-14T02:03:55.943Z,89.44
2022-09-14T02:06:32.119Z,89.71
2022-09-14T02:09:02.680Z,89.89
2022-09-14T02:11:34.029Z,89.89
2022-09-14T02:14:05.900Z,90.14
2022-09-14T02:16:37.047Z,90.28
2022-09-14T02:19:07.341Z,89.99
2022-09-14T02:21:38.137Z,89.58
2022-09-14T02:24:08.879Z,90.56
2022-09-14T02:26:39.259Z,90.20
2022-09-14T02:29:10.955Z,90.23
2022-09-14T02:31:56.642Z,90.29
2022-09-14T02:34:35.953Z,89.95
2022-09-14T02:37:15.317Z,90.20
2022-09-14T02:39:59.290Z,91.06
2022-09-14T02:42:39.604Z,91.30
2022-09-14T02:45:26.180Z,91.26
2022-09-14T02:48:04.006Z,91.22
2022-09-14T02:50:49.218Z,91.68
2022-09-14T02:53:26.417Z,91.50
2022-09-14T02:56:01.779Z,92.87
2022-09-14T02:58:38.994Z,92.97
2022-09-14T03:01:13.722Z,92.88
2022-09-14T03:03:45.412Z,92.74
2022-09-14T03:06:15.595Z,92.46
2022-09-14T03:08:46.238Z,92.61
2022-09-14T03:11:16.175Z,93.24
2022-09-14T03:13:46.243Z,93.60
2022-09-14T03:16:20.903Z,93.91
2022-09-14T03:18:51.027Z,93.76
2022-09-14T03:21:20.995Z,93.43
2022-09-14T03:23:52.898Z,93.72
2022-09-14T03:26:25.135Z,93.62
2022-09-14T03:28:57.695Z,93.01
2022-09-14T03:31:29.699Z,93.17
2022-09-14T03:34:01.698Z,92.95
2022-09-14T03:36:33.834Z,92.90
2022-09-14T03:39:04.064Z,93.56
2022-09-14T03:41:34.016Z,94.11
2022-09-14T03:44:04.588Z,93.49
2022-09-14T03:46:36.057Z,93.71
2022-09-14T03:49:06.132Z,93.56
2022-09-14T03:53:07.839Z,92.88
2022-09-14T03:55:37.896Z,92.05
2022-09-14T03:58:07.654Z,93.46
2022-09-14T04:00:37.945Z,93.06
2022-09-14T04:03:08.091Z,93.73
2022-09-14T04:05:38.042Z,94.38
2022-09-14T04:08:09.494Z,95.50
2022-09-14T04:10:41.402Z,96.71
2022-09-14T04:13:11.407Z,98.18
2022-09-14T04:15:41.475Z,99.26
2022-09-14T04:18:11.458Z,99.85
2022-09-14T04:20:41.898Z,98.96
2022-09-14T04:23:13.321Z,99.04
2022-09-14T04:25:43.224Z,98.90
2022-09-14T04:28:20.899Z,98.29
2022-09-14T04:31:02.077Z,98.59
2022-09-14T04:33:35.119Z,99.31
2022-09-14T04:36:08.526Z,100.00
2022-09-14T04:38:41.956Z,99.90
2022-09-14T04:41:14.894Z,99.71
2022-09-14T04:43:46.296Z,100.00
2022-09-14T04:46:18.572Z,99.78
2022-09-14T04:48:48.680Z,100.00
2022-09-14T04:51:21.529Z,100.00
2022-09-14T04:53:56.618Z,100.00
2022-09-14T04:56:27.877Z,99.90
2022-09-14T04:58:59.804Z,99.18
2022-09-14T05:01:32.752Z,98.70
2022-09-14T05:04:02.938Z,98.35
2022-09-14T05:06:35.505Z,97.77
2022-09-14T05:09:09.961Z,97.45
2022-09-14T05:11:39.895Z,96.80
2022-09-14T05:14:11.561Z,96.18
2022-09-14T05:16:43.319Z,95.47
2022-09-14T05:19:17.838Z,95.11
2022-09-14T05:21:48.794Z,94.82
2022-09-14T05:24:21.458Z,94.17
2022-09-14T05:26:56.047Z,93.51
2022-09-14T05:29:30.174Z,93.68
2022-09-14T05:32:00.177Z,93.11
2022-09-14T05:34:30.135Z,92.54
2022-09-14T05:37:00.093Z,92.30
2022-09-14T05:39:31.638Z,92.84
2022-09-14T05:42:01.540Z,92.45
2022-09-14T05:44:31.502Z,92.52
2022-09-14T05:47:01.336Z,92.01
2022-09-14T05:49:31.874Z,92.15
2022-09-14T05:52:01.796Z,91.84
2022-09-14T05:54:33.319Z,92.39
2022-09-14T05:57:03.357Z,92.07
2022-09-14T05:59:33.305Z,91.96
2022-09-14T06:02:03.428Z,91.87
2022-09-14T06:04:33.635Z,91.45
2022-09-14T06:07:17.800Z,91.76
2022-09-14T06:09:50.255Z,91.67
2022-09-14T06:12:20.443Z,91.11
2022-09-14T06:14:50.424Z,89.14
2022-09-14T06:17:20.365Z,87.97
2022-09-14T06:19:50.368Z,86.92
2022-09-14T06:22:20.729Z,85.79
2022-09-14T06:24:52.177Z,82.99
2022-09-14T06:27:22.274Z,81.10
2022-09-14T06:29:54.195Z,77.92
2022-09-14T06:32:24.874Z,76.54
2022-09-14T06:34:54.818Z,74.50
2022-09-14T06:37:24.755Z,71.35
2022-09-14T06:39:56.261Z,70.86
2022-09-14T06:42:26.460Z,69.49
2022-09-14T06:44:56.481Z,67.79
2022-09-14T06:47:27.661Z,68.23
2022-09-14T06:53:07.776Z,63.94
2022-09-14T06:55:37.755Z,61.78
2022-09-14T06:58:08.100Z,62.22
2022-09-14T07:00:38.102Z,59.86
2022-09-14T07:03:08.108Z,62.91
2022-09-14T07:05:38.358Z,61.47
2022-09-14T07:08:12.227Z,57.03
2022-09-14T07:10:43.495Z,60.21
2022-09-14T07:13:13.434Z,60.59
2022-09-14T07:15:43.457Z,57.00
2022-09-14T07:18:13.321Z,56.51
2022-09-14T07:20:43.383Z,56.29
2022-09-14T07:23:14.767Z,56.47
2022-09-14T07:25:44.759Z,54.43
2022-09-14T07:28:14.614Z,56.89
2022-09-14T07:30:44.695Z,57.01
2022-09-14T07:33:14.659Z,56.75
2022-09-14T07:35:44.675Z,57.75
2022-09-14T07:38:18.860Z,58.72
2022-09-14T07:40:54.274Z,58.07
2022-09-14T07:43:24.179Z,58.37
2022-09-14T07:45:54.243Z,58.09
2022-09-14T07:48:24.620Z,57.03
2022-09-14T07:51:02.715Z,57.14
2022-09-14T07:53:34.517Z,57.61
2022-09-14T07:56:05.286Z,55.69
2022-09-14T07:58:35.425Z,55.76
2022-09-14T08:01:08.068Z,56.54
2022-09-14T08:03:39.020Z,56.82
2022-09-14T08:06:11.663Z,55.42
2022-09-14T08:08:45.762Z,55.78
2022-09-14T08:11:19.817Z,55.08
2022-09-14T08:13:53.643Z,55.29
2022-09-14T08:16:24.903Z,54.61
2022-09-14T08:18:57.954Z,54.43
2022-09-14T08:21:28.939Z,54.25
2022-09-14T08:24:02.779Z,54.17
2022-09-14T08:26:33.461Z,53.51
2022-09-14T08:29:05.243Z,51.83
2022-09-14T08:31:40.423Z,52.69
2022-09-14T08:34:10.685Z,53.38
2022-09-14T08:36:42.899Z,50.86
2022-09-14T08:39:15.764Z,51.17
2022-09-14T08:41:54.979Z,51.61
2022-09-14T08:44:30.558Z,50.39
2022-09-14T08:47:06.058Z,51.49
2022-09-14T08:49:52.185Z,52.08
2022-09-14T08:52:30.189Z,50.22
2022-09-14T08:55:08.576Z,50.42
2022-09-14T08:57:47.239Z,52.33
2022-09-14T09:00:22.463Z,52.20
2022-09-14T09:03:38.266Z,48.14
2022-09-14T09:06:16.440Z,51.29
2022-09-14T09:08:58.764Z,52.49
2022-09-14T09:11:37.649Z,51.65
2022-09-14T09:14:20.414Z,51.03
2022-09-14T09:16:53.179Z,47.22
2022-09-14T09:19:28.954Z,49.16
2022-09-14T09:22:01.483Z,48.35
2022-09-14T09:24:38.842Z,50.00
2022-09-14T09:27:15.579Z,50.87
2022-09-14T09:29:46.102Z,49.88
2022-09-14T09:32:19.898Z,49.73
2022-09-14T09:34:50.338Z,49.25
2022-09-14T09:37:23.013Z,46.44
2022-09-14T09:39:53.782Z,48.53
2022-09-14T09:42:27.337Z,48.72
2022-09-14T09:45:03.425Z,47.30
2022-09-14T09:47:36.922Z,48.44
2022-09-14T09:53:07.799Z,48.01
2022-09-14T09:55:41.835Z,45.21
2022-09-14T09:58:31.076Z,46.94
2022-09-14T10:01:03.498Z,44.33
2022-09-14T10:03:38.657Z,47.23
2022-09-14T10:06:12.194Z,41.82
2022-09-14T10:08:49.433Z,46.47
2022-09-14T10:11:33.656Z,45.06
2022-09-14T10:14:03.793Z,46.59
2022-09-14T10:16:40.596Z,47.36
2022-09-14T10:19:19.795Z,43.31
2022-09-14T10:22:19.298Z,44.29
2022-09-14T10:25:00.360Z,46.83
2022-09-14T10:27:41.294Z,46.89
2022-09-14T10:30:18.922Z,47.62
2022-09-14T10:32:59.555Z,47.54
2022-09-14T10:35:44.305Z,45.16
2022-09-14T10:38:29.561Z,44.47
2022-09-14T10:41:25.867Z,45.88
2022-09-14T10:44:44.483Z,44.19
2022-09-14T10:47:51.497Z,44.33
2022-09-14T10:50:49.258Z,42.29
2022-09-14T10:53:36.578Z,46.06
2022-09-14T10:56:13.578Z,43.37
2022-09-14T10:59:25.820Z,42.26
2022-09-14T11:02:46.609Z,38.94
2022-09-14T11:05:24.595Z,40.58
2022-09-14T11:08:07.400Z,42.15
2022-09-14T11:10:51.240Z,42.07
2022-09-14T11:13:49.833Z,41.82
2022-09-14T11:16:49.439Z,41.34
2022-09-14T11:19:37.337Z,37.27
2022-09-14T11:22:16.519Z,39.24
2022-09-14T11:24:53.620Z,37.54
2022-09-14T11:27:31.218Z,42.69
2022-09-14T11:30:08.387Z,43.28
2022-09-14T11:32:44.598Z,43.06
2022-09-14T11:35:21.038Z,42.04
2022-09-14T11:37:58.700Z,40.45
2022-09-14T11:40:32.841Z,43.00
2022-09-14T11:43:11.831Z,42.84
2022-09-14T11:45:50.808Z,43.04
2022-09-14T11:48:43.726Z,42.52
2022-09-14T11:51:19.663Z,42.94
2022-09-14T11:53:51.160Z,42.61
2022-09-14T11:56:28.858Z,40.20
2022-09-14T11:59:01.524Z,42.90
2022-09-14T12:01:37.356Z,41.59
2022-09-14T12:04:14.867Z,42.31
2022-09-14T12:06:49.473Z,42.04
2022-09-14T12:09:55.495Z,43.03
2022-09-14T12:12:41.908Z,40.88
2022-09-14T12:15:35.712Z,42.25
2022-09-14T12:18:25.774Z,42.51
2022-09-14T12:21:24.036Z,42.22
2022-09-14T12:23:58.171Z,42.00
2022-09-14T12:26:33.799Z,41.83
2022-09-14T12:29:28.583Z,41.08
2022-09-14T12:32:07.495Z,42.09
2022-09-14T12:34:38.910Z,40.96
2022-09-14T12:37:34.617Z,41.21
2022-09-14T12:40:39.556Z,42.22
2022-09-14T12:43:50.094Z,40.71
2022-09-14T12:46:43.255Z,43.37
2022-09-14T12:53:23.621Z,45.35
2022-09-14T12:56:06.101Z,46.04
2022-09-14T12:59:02.783Z,45.62
2022-09-14T13:01:41.222Z,47.09
2022-09-14T13:04:17.959Z,46.21
2022-09-14T13:06:50.158Z,47.43
2022-09-14T13:09:25.099Z,48.22
2022-09-14T13:12:00.035Z,49.19
2022-09-14T13:14:34.121Z,50.53
2022-09-14T13:17:07.421Z,49.90
2022-09-14T13:19:37.568Z,49.23
2022-09-14T13:22:22.272Z,49.67
2022-09-14T13:24:56.761Z,50.10
2022-09-14T13:27:29.822Z,49.98
2022-09-14T13:30:06.981Z,49.92
2022-09-14T13:32:43.855Z,49.37
2022-09-14T13:35:22.256Z,50.79
2022-09-14T13:37:52.688Z,51.86
2022-09-14T13:40:29.660Z,52.16
2022-09-14T13:43:00.979Z,53.17
2022-09-14T13:45:31.397Z,51.14
2022-09-14T13:48:01.956Z,52.33
2022-09-14T13:50:32.243Z,52.34
2022-09-14T13:53:03.917Z,52.09
2022-09-14T13:55:47.866Z,52.37
2022-09-14T13:58:25.440Z,53.13
2022-09-14T14:01:02.583Z,52.95
2022-09-14T14:03:39.375Z,53.62
2022-09-14T14:06:26.239Z,54.39
2022-09-14T14:09:08.655Z,54.64
2022-09-14T14:11:42.977Z,54.80
2022-09-14T14:14:27.599Z,54.37
2022-09-14T14:17:37.164Z,54.54
2022-09-14T14:20:35.718Z,55.27
2022-09-14T14:23:23.119Z,56.20
2022-09-14T14:25:55.798Z,55.73
2022-09-14T14:28:31.081Z,56.97
2022-09-14T14:31:08.387Z,57.30
2022-09-14T14:33:45.623Z,56.99
2022-09-14T14:36:15.718Z,56.95
2022-09-14T14:38:45.865Z,57.88
2022-09-14T14:41:19.546Z,57.94
2022-09-14T14:43:52.138Z,57.54
2022-09-14T14:46:22.117Z,58.33
2022-09-14T14:48:52.085Z,58.12
2022-09-14T14:51:22.157Z,58.59
2022-09-14T14:53:52.296Z,58.12
2022-09-14T14:56:22.257Z,57.93
2022-09-14T14:58:53.878Z,58.90
2022-09-14T15:01:23.900Z,59.05
2022-09-14T15:03:53.952Z,58.35
2022-09-14T15:06:29.585Z,58.59
2022-09-14T15:09:00.115Z,58.50
2022-09-14T15:11:31.044Z,59.01
2022-09-14T15:14:02.466Z,58.28
2022-09-14T15:16:32.550Z,58.62
2022-09-14T15:19:02.498Z,58.80
2022-09-14T15:21:32.480Z,59.29
2022-09-14T15:24:02.515Z,60.19
2022-09-14T15:26:33.019Z,60.44
2022-09-14T15:29:05.042Z,60.80
2022-09-14T15:31:35.636Z,61.03
2022-09-14T15:34:05.677Z,61.13
2022-09-14T15:36:41.237Z,61.59
2022-09-14T15:39:14.796Z,62.74
2022-09-14T15:41:45.360Z,64.17
2022-09-14T15:44:17.122Z,64.62
2022-09-14T15:46:47.943Z,65.24
2022-09-14T15:49:23.155Z,65.43
2022-09-14T15:53:07.479Z,66.22
2022-09-14T15:55:37.559Z,67.77
2022-09-14T15:58:07.738Z,68.78
2022-09-14T16:00:38.681Z,69.75
2022-09-14T16:03:08.858Z,71.18
2022-09-14T16:05:40.457Z,71.14
2022-09-14T16:08:12.079Z,71.59
2022-09-14T16:10:42.062Z,72.45
2022-09-14T16:13:11.978Z,72.61
2022-09-14T16:15:41.938Z,73.40
2022-09-14T16:18:12.239Z,73.65
2022-09-14T16:20:42.228Z,73.98
2022-09-14T16:23:13.826Z,75.14
2022-09-14T16:25:43.840Z,75.97
2022-09-14T16:28:13.947Z,76.82
2022-09-14T16:30:43.889Z,76.76
2022-09-14T16:33:13.901Z,77.23
2022-09-14T16:35:43.846Z,77.81
2022-09-14T16:38:15.275Z,78.03
2022-09-14T16:40:45.883Z,77.98
2022-09-14T16:43:16.995Z,77.86
2022-09-14T16:45:47.001Z,78.27
2022-09-14T16:48:17.118Z,78.82
2022-09-14T16:50:46.995Z,78.95
2022-09-14T16:53:18.445Z,79.36
2022-09-14T16:55:48.915Z,80.25
2022-09-14T16:58:19.182Z,80.08
2022-09-14T17:00:49.196Z,79.89
2022-09-14T17:03:19.268Z,80.07
2022-09-14T17:05:49.236Z,80.18
2022-09-14T17:08:20.735Z,80.46
2022-09-14T17:10:52.744Z,80.68
2022-09-14T17:13:22.802Z,81.08
2022-09-14T17:15:52.788Z,80.95
2022-09-14T17:18:23.199Z,80.56
2022-09-14T17:20:58.628Z,80.46
2022-09-14T17:23:30.899Z,80.86
2022-09-14T17:26:00.735Z,81.57
2022-09-14T17:28:32.035Z,81.32
2022-09-14T17:31:05.030Z,81.49
2022-09-14T17:33:36.034Z,81.01
2022-09-14T17:36:08.635Z,80.80
2022-09-14T17:38:42.882Z,80.59
2022-09-14T17:41:16.551Z,80.52
2022-09-14T17:43:46.858Z,81.21
2022-09-14T17:46:18.218Z,81.51
2022-09-14T17:48:48.498Z,81.85
2022-09-14T17:51:20.958Z,81.94
2022-09-14T17:53:55.459Z,81.58
2022-09-14T17:56:28.255Z,82.43
2022-09-14T17:59:07.834Z,84.48
2022-09-14T18:01:37.900Z,84.87
2022-09-14T18:04:13.495Z,84.13
2022-09-14T18:06:46.475Z,83.96
2022-09-14T18:09:20.210Z,83.73
2022-09-14T18:11:51.212Z,83.93
2022-09-14T18:14:21.294Z,84.24
2022-09-14T18:16:51.324Z,84.50
2022-09-14T18:19:21.535Z,84.23
2022-09-14T18:21:52.814Z,84.24
2022-09-14T18:24:24.638Z,84.26
2022-09-14T18:26:54.578Z,84.94
2022-09-14T18:29:24.834Z,84.53
2022-09-14T18:31:55.471Z,84.57
2022-09-14T18:34:28.465Z,84.71
2022-09-14T18:36:58.676Z,84.44
2022-09-14T18:39:30.234Z,84.67
2022-09-14T18:42:00.459Z,84.81
2022-09-14T18:44:30.517Z,84.34
2022-09-14T18:47:00.619Z,84.73
2022-09-14T18:49:30.762Z,84.41
2022-09-14T18:53:07.728Z,85.03
2022-09-14T18:55:37.836Z,84.81
2022-09-14T18:58:07.941Z,85.22
2022-09-14T19:00:38.853Z,85.41
2022-09-14T19:03:08.935Z,85.28
2022-09-14T19:05:43.010Z,85.43
2022-09-14T19:08:14.442Z,84.99
2022-09-14T19:10:44.478Z,84.21
2022-09-14T19:13:14.510Z,84.71
2022-09-14T19:15:44.946Z,84.72
2022-09-14T19:18:15.083Z,85.09
2022-09-14T19:21:05.872Z,85.16
2022-09-14T19:23:39.216Z,84.96
2022-09-14T19:26:12.539Z,85.39
2022-09-14T19:28:42.656Z,85.43
2022-09-14T19:31:16.410Z,85.81
2022-09-14T19:33:47.455Z,85.55
2022-09-14T19:36:21.405Z,86.01
2022-09-14T19:38:54.771Z,85.97
2022-09-14T19:41:25.503Z,86.08
2022-09-14T19:43:55.682Z,86.70
2022-09-14T19:46:25.993Z,86.03
2022-09-14T19:48:56.119Z,85.94
2022-09-14T19:51:28.482Z,85.92
2022-09-14T19:54:00.900Z,86.25
2022-09-14T19:56:33.683Z,86.45
2022-09-14T19:59:05.699Z,86.39
2022-09-14T20:01:38.326Z,86.74
2022-09-14T20:04:10.627Z,86.51
2022-09-14T20:06:43.086Z,86.47
2022-09-14T20:09:15.243Z,86.34
2022-09-14T20:11:46.978Z,86.67
2022-09-14T20:14:22.910Z,86.93
2022-09-14T20:16:56.080Z,87.12
2022-09-14T20:19:28.538Z,87.07
2022-09-14T20:21:59.558Z,87.17
2022-09-14T20:24:32.695Z,86.65
2022-09-14T20:27:03.858Z,86.84
2022-09-14T20:29:35.742Z,87.04
2022-09-14T20:32:07.457Z,87.23
2022-09-14T20:34:37.398Z,86.75
2022-09-14T20:37:07.416Z,87.05
2022-09-14T20:39:39.015Z,87.39
2022-09-14T20:42:09.617Z,87.69
2022-09-14T20:44:39.524Z,87.45
2022-09-14T20:47:09.694Z,87.49
2022-09-14T20:49:39.595Z,87.68
2022-09-14T20:52:09.735Z,87.70
2022-09-14T20:54:41.175Z,87.87
2022-09-14T20:57:11.246Z,87.94
2022-09-14T20:59:41.336Z,87.68
2022-09-14T21:02:12.591Z,88.37
2022-09-14T21:04:42.539Z,88.07
2022-09-14T21:07:19.768Z,88.29
2022-09-14T21:09:51.536Z,88.30
2022-09-14T21:12:21.726Z,88.68
2022-09-14T21:14:51.698Z,88.80
2022-09-14T21:17:22.519Z,88.67
2022-09-14T21:19:52.375Z,88.62
2022-09-14T21:22:22.321Z,88.88
2022-09-14T21:24:54.287Z,88.35
2022-09-14T21:27:24.268Z,88.47
2022-09-14T21:29:54.198Z,88.51
2022-09-14T21:32:24.160Z,88.16
2022-09-14T21:34:54.087Z,88.27
2022-09-14T21:37:26.958Z,88.48
2022-09-14T21:39:58.519Z,88.54
2022-09-14T21:42:28.436Z,88.64
2022-09-14T21:44:58.428Z,89.08
2022-09-14T21:47:28.565Z,89.48
2022-09-14T21:53:10.299Z,89.73
2022-09-14T21:55:41.740Z,89.73
2022-09-14T21:58:11.948Z,89.79
2022-09-14T22:00:41.879Z,90.02
2022-09-14T22:03:11.839Z,90.09
2022-09-14T22:05:41.801Z,90.37
2022-09-14T22:08:13.434Z,89.84
2022-09-14T22:10:43.525Z,90.16
2022-09-14T22:13:13.513Z,89.95
2022-09-14T22:15:43.677Z,89.74
2022-09-14T22:18:14.596Z,90.15
2022-09-14T22:20:44.745Z,89.42
2022-09-14T22:23:16.237Z,89.33
2022-09-14T22:25:46.217Z,89.49
2022-09-14T22:28:16.257Z,89.16
2022-09-14T22:30:47.940Z,89.95
2022-09-14T22:33:17.923Z,90.20
2022-09-14T22:35:55.156Z,90.42
2022-09-14T22:38:28.839Z,90.38
2022-09-14T22:41:01.205Z,90.36
2022-09-14T22:43:32.198Z,89.87
2022-09-14T22:46:02.662Z,89.83
2022-09-14T22:48:33.018Z,90.33
2022-09-14T22:51:04.099Z,89.93
2022-09-14T22:53:36.277Z,89.92
2022-09-14T22:56:12.135Z,90.00
2022-09-14T22:58:42.676Z,89.84
2022-09-14T23:01:15.509Z,89.39
2022-09-14T23:03:45.940Z,89.48
2022-09-14T23:06:16.346Z,90.03
2022-09-14T23:08:47.875Z,89.73
2022-09-14T23:11:17.696Z,89.51
2022-09-14T23:13:48.994Z,89.58
2022-09-14T23:16:23.459Z,89.39
2022-09-14T23:18:55.085Z,90.14
2022-09-14T23:21:25.285Z,89.82
2022-09-14T23:24:00.695Z,89.81
2022-09-14T23:26:32.474Z,89.87
2022-09-14T23:29:05.025Z,89.68
2022-09-14T23:31:34.857Z,89.94
2022-09-14T23:34:06.939Z,90.04
2022-09-14T23:36:37.902Z,90.26
2022-09-14T23:39:09.899Z,89.92
2022-09-14T23:41:40.814Z,90.14
2022-09-14T23:44:13.084Z,90.14
2022-09-14T23:46:43.484Z,89.91
2022-09-14T23:49:14.655Z,89.51
2022-09-14T23:51:45.197Z,89.99
2022-09-14T23:54:16.734Z,90.22
2022-09-14T23:56:47.055Z,90.04
2022-09-14T23:59:18.579Z,90.24
